Time;durP1;ratioP1;P1;durP2;ratioP2;P2;SDS_P1;SDS_P2;PMS_P1;PMS_P2;Temp;Humidity;BMP_temperature;BMP_pressure;BME280_temperature;BME280_humidity;BME280_pressure;Samples;Min_cycle;Max_cycle;Signal;HPM_P1;HPM_P2
2021/12/10 00:00:28;;;;;;;10.23;4.70;;;6.40;99.90;;;;;;6276750;22;20464;-80
2021/12/10 00:02:54;;;;;;;9.43;3.97;;;6.40;99.90;;;;;;6276694;22;20166;-80
2021/12/10 00:05:32;;;;;;;12.47;3.90;;;6.20;99.90;;;;;;6276748;22;20476;-80
2021/12/10 00:07:58;;;;;;;8.80;4.43;;;6.30;99.90;;;;;;6249786;22;20602;-80
2021/12/10 00:10:30;;;;;;;9.40;3.67;;;6.30;99.90;;;;;;6249340;22;20171;-79
2021/12/10 00:12:57;;;;;;;9.60;3.77;;;6.30;99.90;;;;;;6249438;22;20147;-80
2021/12/10 00:15:26;;;;;;;10.87;3.40;;;6.30;99.90;;;;;;6249177;22;20178;-80
2021/12/10 00:17:53;;;;;;;12.23;3.60;;;6.30;99.90;;;;;;6248570;22;20158;-87
2021/12/10 00:20:20;;;;;;;9.30;3.87;;;6.20;99.90;;;;;;6250990;22;20150;-87
2021/12/10 00:22:55;;;;;;;13.57;3.40;;;6.20;99.90;;;;;;6249853;22;20161;-86
2021/12/10 00:25:34;;;;;;;7.77;2.87;;;6.30;99.90;;;;;;6250247;22;20138;-87
2021/12/10 00:28:01;;;;;;;12.20;3.90;;;6.30;99.90;;;;;;6250144;22;20181;-87
2021/12/10 00:30:33;;;;;;;16.13;3.97;;;6.30;99.90;;;;;;6250542;22;20143;-88
2021/12/10 00:33:15;;;;;;;12.97;3.40;;;6.40;99.90;;;;;;6251150;22;20258;-87
2021/12/10 00:35:42;;;;;;;11.97;3.13;;;6.50;99.90;;;;;;6250887;22;20178;-87
2021/12/10 00:38:09;;;;;;;7.17;2.70;;;6.40;99.90;;;;;;6251069;22;20158;-87
2021/12/10 00:40:35;;;;;;;7.70;3.20;;;6.40;99.90;;;;;;6250712;22;20142;-87
2021/12/10 00:43:02;;;;;;;5.90;2.80;;;6.50;99.90;;;;;;6250872;22;20233;-88
2021/12/10 00:45:28;;;;;;;4.87;2.90;;;6.50;99.90;;;;;;6251335;22;20535;-87
2021/12/10 00:47:55;;;;;;;6.60;2.90;;;6.60;99.90;;;;;;6251166;22;20213;-87
2021/12/10 00:50:26;;;;;;;8.33;2.83;;;6.50;99.90;;;;;;6250781;22;20143;-87
2021/12/10 00:52:53;;;;;;;11.20;3.87;;;6.50;99.90;;;;;;6250734;22;20554;-88
2021/12/10 00:55:20;;;;;;;6.33;2.97;;;6.60;99.90;;;;;;6250264;22;20180;-87
2021/12/10 00:57:46;;;;;;;10.17;2.63;;;6.60;99.90;;;;;;6250852;22;20477;-87
2021/12/10 01:00:17;;;;;;;7.23;2.80;;;6.60;99.90;;;;;;6250708;22;20141;-88
2021/12/10 01:02:43;;;;;;;6.10;2.73;;;6.70;99.90;;;;;;6250463;22;20249;-87
2021/12/10 01:05:11;;;;;;;7.90;2.83;;;6.90;99.90;;;;;;6250747;22;20216;-89
2021/12/10 01:07:38;;;;;;;7.00;2.40;;;6.90;99.90;;;;;;6250772;22;20221;-88
2021/12/10 01:10:23;;;;;;;6.93;2.33;;;6.90;99.90;;;;;;6250418;22;20171;-87
2021/12/10 01:12:52;;;;;;;7.27;2.60;;;6.90;99.90;;;;;;6251054;22;20602;-87
2021/12/10 01:23:52;;;;;;;3.90;1.80;;;7.00;99.90;;;;;;6277873;22;20145;-95
2021/12/10 01:29:19;;;;;;;5.50;2.23;;;6.90;99.90;;;;;;6273762;22;20497;-94
2021/12/10 01:31:46;;;;;;;7.77;2.10;;;6.90;99.90;;;;;;6250042;22;20196;-95
2021/12/10 01:34:12;;;;;;;6.93;2.50;;;7.00;99.90;;;;;;6250595;22;20158;-94
2021/12/10 01:36:39;;;;;;;6.07;2.10;;;6.90;99.90;;;;;;6250534;22;20259;-95
2021/12/10 01:39:21;;;;;;;5.20;2.73;;;6.80;99.90;;;;;;6251524;22;20143;-96
2021/12/10 01:41:54;;;;;;;6.87;1.93;;;6.90;99.90;;;;;;6251735;22;20237;-95
2021/12/10 01:44:29;;;;;;;3.57;2.10;;;7.00;99.90;;;;;;6251495;22;20464;-91
2021/12/10 01:47:02;;;;;;;8.47;2.10;;;7.10;99.90;;;;;;6251540;22;20150;-96
2021/12/10 01:49:29;;;;;;;6.70;2.03;;;7.00;99.90;;;;;;6251355;22;20244;-95
2021/12/10 01:51:56;;;;;;;4.63;1.70;;;7.00;99.90;;;;;;6252568;22;20195;-95
2021/12/10 01:54:31;;;;;;;5.97;1.70;;;6.80;99.90;;;;;;6260326;22;20142;-94
2021/12/10 01:56:59;;;;;;;6.00;2.13;;;6.70;99.90;;;;;;6253640;22;20174;-96
2021/12/10 01:59:27;;;;;;;5.57;1.33;;;6.70;99.90;;;;;;6252332;22;20143;-96
2021/12/10 02:01:59;;;;;;;6.33;2.20;;;6.80;99.90;;;;;;6251745;22;20166;-96
2021/12/10 02:04:29;;;;;;;3.20;1.20;;;6.80;99.90;;;;;;6252278;22;20143;-96
2021/12/10 02:06:55;;;;;;;2.60;1.30;;;6.90;99.90;;;;;;6251043;22;20177;-96
2021/12/10 02:09:21;;;;;;;11.83;1.50;;;6.90;99.90;;;;;;6251766;22;20513;-96
2021/12/10 02:11:50;;;;;;;5.37;1.47;;;6.80;99.90;;;;;;6251582;22;20218;-96
2021/12/10 02:14:17;;;;;;;5.80;1.40;;;6.80;99.90;;;;;;6250814;22;20154;-96
2021/12/10 02:16:43;;;;;;;4.23;1.10;;;6.80;99.90;;;;;;6250782;22;20178;-96
2021/12/10 02:19:10;;;;;;;5.57;1.00;;;6.80;99.90;;;;;;6251571;22;20461;-96
2021/12/10 02:21:39;;;;;;;5.03;1.40;;;6.90;99.90;;;;;;6251393;22;20150;-95
2021/12/10 02:24:06;;;;;;;4.70;1.03;;;6.90;99.90;;;;;;6250993;22;20225;-96
2021/12/10 02:26:36;;;;;;;3.63;1.27;;;6.90;99.90;;;;;;6251071;22;20143;-96
2021/12/10 02:29:03;;;;;;;5.00;1.43;;;7.00;99.90;;;;;;6251245;22;20135;-95
2021/12/10 02:31:29;;;;;;;3.87;0.77;;;6.90;99.90;;;;;;6251081;22;20594;-95
2021/12/10 02:33:55;;;;;;;9.10;1.00;;;7.00;99.90;;;;;;6250998;22;20301;-95
2021/12/10 02:36:22;;;;;;;6.83;1.00;;;7.00;99.90;;;;;;6250796;22;20190;-95
2021/12/10 02:38:50;;;;;;;4.97;1.03;;;6.90;99.90;;;;;;6249953;22;20153;-95
2021/12/10 02:41:18;;;;;;;2.73;0.90;;;6.80;99.90;;;;;;6252550;22;20264;-96
2021/12/10 02:43:46;;;;;;;3.70;0.73;;;6.70;99.90;;;;;;6252232;22;20147;-94
2021/12/10 02:46:13;;;;;;;2.37;0.70;;;6.60;99.90;;;;;;6252425;22;20147;-96
2021/12/10 02:48:38;;;;;;;5.17;0.87;;;6.50;99.90;;;;;;6251909;22;20139;-95
2021/12/10 02:51:06;;;;;;;2.40;0.70;;;6.40;99.90;;;;;;6252081;22;20248;-96
2021/12/10 02:53:35;;;;;;;2.97;0.67;;;6.50;99.90;;;;;;6251747;22;20229;-95
2021/12/10 02:56:03;;;;;;;3.03;0.67;;;6.60;99.90;;;;;;6252613;22;20175;-95
2021/12/10 02:58:29;;;;;;;3.47;0.73;;;6.60;99.90;;;;;;6252043;22;20162;-94
2021/12/10 03:01:07;;;;;;;1.30;0.60;;;6.50;99.90;;;;;;6252129;22;20166;-95
2021/12/10 03:03:36;;;;;;;2.70;0.60;;;6.60;99.90;;;;;;6252211;22;20219;-96
2021/12/10 03:06:09;;;;;;;1.37;0.57;;;6.60;99.90;;;;;;6251941;22;20149;-94
2021/12/10 03:08:38;;;;;;;2.20;0.70;;;6.40;99.90;;;;;;6252112;22;20157;-94
2021/12/10 03:11:03;;;;;;;3.47;1.10;;;6.30;99.90;;;;;;6252043;22;20242;-96
2021/12/10 03:13:30;;;;;;;5.03;0.67;;;6.30;99.90;;;;;;6251850;22;20277;-94
2021/12/10 03:15:55;;;;;;;3.20;0.93;;;6.20;99.90;;;;;;6251911;22;20182;-94
2021/12/10 03:18:21;;;;;;;2.50;0.60;;;6.10;99.90;;;;;;6252351;22;20139;-94
2021/12/10 03:20:47;;;;;;;5.33;0.70;;;6.10;99.90;;;;;;6251840;22;20147;-95
2021/12/10 03:23:13;;;;;;;2.83;0.60;;;6.00;99.90;;;;;;6252328;22;20143;-95
2021/12/10 03:25:40;;;;;;;1.37;0.60;;;5.90;99.90;;;;;;6252448;22;20601;-95
2021/12/10 03:28:06;;;;;;;4.73;0.90;;;5.90;99.90;;;;;;6251673;22;20150;-95
2021/12/10 03:30:37;;;;;;;2.17;0.53;;;6.00;99.90;;;;;;6251729;22;20394;-94
2021/12/10 03:33:04;;;;;;;1.33;0.50;;;5.80;99.90;;;;;;6251589;22;20605;-94
2021/12/10 03:35:44;;;;;;;2.37;0.60;;;5.70;99.90;;;;;;6251281;22;20210;-91
2021/12/10 03:38:15;;;;;;;2.70;0.70;;;5.80;99.90;;;;;;6252198;22;20513;-94
2021/12/10 03:40:41;;;;;;;2.37;0.70;;;5.80;99.90;;;;;;6251866;22;20169;-94
2021/12/10 03:43:09;;;;;;;1.73;0.53;;;5.80;99.90;;;;;;6251688;22;20139;-94
2021/12/10 03:45:39;;;;;;;4.20;0.60;;;5.90;99.90;;;;;;6251548;22;20206;-93
2021/12/10 03:48:25;;;;;;;4.10;0.50;;;6.00;99.90;;;;;;6251811;22;20150;-94
2021/12/10 03:50:52;;;;;;;1.70;0.40;;;5.90;99.90;;;;;;6250931;22;20143;-93
2021/12/10 03:53:18;;;;;;;2.90;0.73;;;6.10;99.90;;;;;;6251493;22;20143;-94
2021/12/10 03:55:45;;;;;;;3.43;0.63;;;6.00;99.90;;;;;;6251533;22;20205;-94
2021/12/10 03:58:10;;;;;;;3.27;0.90;;;6.00;99.90;;;;;;6251721;22;20143;-93
2021/12/10 04:00:44;;;;;;;2.03;0.70;;;5.90;99.90;;;;;;6251307;22;20632;-93
2021/12/10 04:03:17;;;;;;;2.50;0.63;;;6.00;99.90;;;;;;6251387;22;20166;-94
2021/12/10 04:05:43;;;;;;;1.77;0.60;;;5.90;99.90;;;;;;6251059;22;20146;-94
2021/12/10 04:08:09;;;;;;;1.23;0.70;;;6.00;99.90;;;;;;6251485;22;20138;-92
2021/12/10 04:10:35;;;;;;;3.87;1.03;;;6.00;99.90;;;;;;6251054;22;20227;-94
2021/12/10 04:13:01;;;;;;;2.53;0.50;;;6.00;99.90;;;;;;6251484;22;20191;-95
2021/12/10 04:15:28;;;;;;;2.20;0.60;;;6.00;99.90;;;;;;6251390;22;20191;-94
2021/12/10 04:17:56;;;;;;;3.03;0.70;;;5.90;99.90;;;;;;6251602;22;20553;-94
2021/12/10 04:20:25;;;;;;;1.30;0.67;;;5.80;99.90;;;;;;6251219;22;20147;-94
2021/12/10 04:22:51;;;;;;;1.63;0.50;;;5.70;99.90;;;;;;6252425;22;20607;-93
2021/12/10 04:25:20;;;;;;;3.00;0.53;;;5.70;99.90;;;;;;6251394;22;20195;-94
2021/12/10 04:27:48;;;;;;;1.87;0.50;;;5.50;99.90;;;;;;6251346;22;20595;-93
2021/12/10 04:30:14;;;;;;;0.93;0.60;;;5.60;99.90;;;;;;6251154;22;20224;-94
2021/12/10 04:32:41;;;;;;;1.77;0.70;;;5.60;99.90;;;;;;6251131;22;20146;-92
2021/12/10 04:35:08;;;;;;;1.63;0.90;;;5.50;99.90;;;;;;6250811;22;20583;-94
2021/12/10 04:37:34;;;;;;;0.60;0.40;;;5.50;99.90;;;;;;6251479;22;20584;-95
2021/12/10 04:40:03;;;;;;;1.60;0.50;;;5.50;99.90;;;;;;6251260;22;20218;-94
2021/12/10 04:42:29;;;;;;;1.17;0.40;;;5.50;99.90;;;;;;6251388;22;20161;-95
2021/12/10 04:44:58;;;;;;;4.07;0.50;;;5.60;99.90;;;;;;6251595;22;20147;-95
2021/12/10 04:47:24;;;;;;;1.53;0.57;;;5.60;99.90;;;;;;6251421;22;20579;-96
2021/12/10 04:49:50;;;;;;;3.80;0.67;;;5.70;99.90;;;;;;6251515;22;20470;-96
2021/12/10 04:52:16;;;;;;;3.20;0.47;;;5.80;99.90;;;;;;6251371;22;20147;-94
2021/12/10 04:54:42;;;;;;;1.43;0.50;;;5.90;99.90;;;;;;6251330;22;20145;-94
2021/12/10 04:57:08;;;;;;;1.40;0.57;;;5.80;99.90;;;;;;6251407;22;20210;-95
2021/12/10 04:59:36;;;;;;;1.37;0.70;;;5.70;99.90;;;;;;6251205;22;20142;-93
2021/12/10 05:02:05;;;;;;;1.47;0.40;;;5.80;99.90;;;;;;6250211;22;20176;-94
2021/12/10 05:04:32;;;;;;;1.43;0.60;;;5.70;99.90;;;;;;6250982;22;20537;-95
2021/12/10 05:06:59;;;;;;;1.07;0.50;;;5.80;99.90;;;;;;6251013;22;20230;-96
2021/12/10 05:09:25;;;;;;;4.00;0.93;;;5.80;99.90;;;;;;6250703;22;20153;-95
2021/12/10 05:11:52;;;;;;;1.90;0.40;;;5.90;99.90;;;;;;6250498;22;20549;-95
2021/12/10 05:14:19;;;;;;;2.33;0.40;;;6.00;99.90;;;;;;6251240;22;20202;-95
2021/12/10 05:16:46;;;;;;;1.20;0.60;;;6.00;99.90;;;;;;6250408;22;20179;-95
2021/12/10 05:19:20;;;;;;;2.03;0.60;;;6.00;99.90;;;;;;6250855;22;20564;-96
2021/12/10 05:21:47;;;;;;;1.20;0.50;;;5.90;99.90;;;;;;6251116;22;20150;-95
2021/12/10 05:24:14;;;;;;;2.57;0.70;;;5.70;99.90;;;;;;6250986;22;20147;-94
2021/12/10 05:26:41;;;;;;;1.63;0.43;;;5.70;99.90;;;;;;6250388;22;20147;-95
2021/12/10 05:29:08;;;;;;;2.00;0.47;;;5.80;99.90;;;;;;6250978;22;20150;-94
2021/12/10 05:31:36;;;;;;;3.03;0.57;;;5.80;99.90;;;;;;6250366;22;20213;-96
2021/12/10 05:34:03;;;;;;;2.13;0.60;;;5.90;99.90;;;;;;6251135;22;20154;-93
2021/12/10 05:36:30;;;;;;;1.70;0.63;;;5.90;99.90;;;;;;6250756;22;20196;-96
2021/12/10 05:38:56;;;;;;;1.07;0.40;;;6.00;99.90;;;;;;6250696;22;20220;-95
2021/12/10 05:41:22;;;;;;;1.97;0.70;;;5.80;99.90;;;;;;6250418;22;20188;-95
2021/12/10 05:43:48;;;;;;;1.37;0.60;;;5.90;99.90;;;;;;6250674;22;20147;-95
2021/12/10 05:46:16;;;;;;;2.83;0.93;;;5.80;99.90;;;;;;6250400;22;20169;-94
2021/12/10 05:48:42;;;;;;;0.53;0.30;;;5.70;99.90;;;;;;6250699;22;20222;-95
2021/12/10 05:51:07;;;;;;;1.27;0.70;;;5.60;99.90;;;;;;6250536;22;20158;-95
2021/12/10 05:53:33;;;;;;;0.53;0.40;;;5.60;99.90;;;;;;6250663;22;20627;-94
2021/12/10 05:55:59;;;;;;;1.33;0.40;;;5.70;99.90;;;;;;6250719;22;20178;-95
2021/12/10 05:58:26;;;;;;;0.60;0.40;;;5.60;99.90;;;;;;6250616;22;20146;-95
2021/12/10 06:00:55;;;;;;;0.50;0.20;;;5.60;99.90;;;;;;6250124;22;20151;-95
2021/12/10 06:03:23;;;;;;;0.53;0.37;;;5.70;99.90;;;;;;6250082;22;20216;-94
2021/12/10 06:05:49;;;;;;;1.37;0.47;;;5.70;99.90;;;;;;6250183;22;20151;-94
2021/12/10 06:08:16;;;;;;;1.43;0.40;;;5.80;99.90;;;;;;6250793;22;20233;-94
2021/12/10 06:10:43;;;;;;;2.17;0.60;;;5.90;99.90;;;;;;6250249;22;20163;-95
2021/12/10 06:13:09;;;;;;;1.50;0.63;;;6.00;99.90;;;;;;6250487;22;20293;-95
2021/12/10 06:15:36;;;;;;;0.60;0.40;;;6.00;99.90;;;;;;6249603;22;20228;-94
2021/12/10 06:18:01;;;;;;;0.93;0.30;;;6.00;99.90;;;;;;6250334;22;20181;-95
2021/12/10 06:20:32;;;;;;;2.53;0.50;;;5.90;99.90;;;;;;6249817;22;20150;-94
2021/12/10 06:22:59;;;;;;;1.13;0.43;;;5.90;99.90;;;;;;6250405;22;20153;-95
2021/12/10 06:25:26;;;;;;;1.33;0.60;;;5.90;99.90;;;;;;6250373;22;20146;-94
2021/12/10 06:27:53;;;;;;;0.57;0.37;;;5.80;99.90;;;;;;6249875;22;20150;-94
2021/12/10 06:30:24;;;;;;;1.13;0.43;;;5.70;99.90;;;;;;6250014;22;20143;-94
2021/12/10 06:32:54;;;;;;;0.40;0.30;;;5.60;99.90;;;;;;6250074;22;20151;-93
2021/12/10 06:35:21;;;;;;;2.07;0.57;;;5.60;99.90;;;;;;6250521;22;20178;-94
2021/12/10 06:37:47;;;;;;;0.73;0.40;;;5.60;99.90;;;;;;6250539;22;20158;-95
2021/12/10 06:40:16;;;;;;;1.27;0.40;;;5.50;99.90;;;;;;6250176;22;20146;-94
2021/12/10 06:42:42;;;;;;;0.87;0.47;;;5.40;99.90;;;;;;6250025;22;20152;-94
2021/12/10 06:45:12;;;;;;;2.03;0.67;;;5.40;99.90;;;;;;6250142;22;20217;-95
2021/12/10 06:47:40;;;;;;;1.83;0.43;;;5.50;99.90;;;;;;6250061;22;20154;-92
2021/12/10 06:50:07;;;;;;;0.90;0.40;;;5.60;99.90;;;;;;6250357;22;20241;-96
2021/12/10 06:52:33;;;;;;;1.57;0.50;;;5.60;99.90;;;;;;6250504;22;20170;-93
2021/12/10 06:55:00;;;;;;;1.40;0.70;;;5.70;99.90;;;;;;6250288;22;20580;-94
2021/12/10 06:57:25;;;;;;;0.57;0.40;;;5.60;99.90;;;;;;6250517;22;20158;-94
2021/12/10 06:59:53;;;;;;;0.80;0.50;;;5.60;99.90;;;;;;6250235;22;20143;-94
2021/12/10 07:02:19;;;;;;;3.10;0.60;;;5.60;99.90;;;;;;6249565;22;20162;-95
2021/12/10 07:04:44;;;;;;;3.73;0.53;;;5.60;99.90;;;;;;6250305;22;20150;-95
2021/12/10 07:07:11;;;;;;;1.33;0.60;;;5.70;99.90;;;;;;6249927;22;20152;-95
2021/12/10 07:09:38;;;;;;;1.50;0.93;;;5.60;99.90;;;;;;6248893;22;20174;-95
2021/12/10 07:12:05;;;;;;;1.03;0.50;;;5.80;99.90;;;;;;6249081;22;20146;-95
2021/12/10 07:14:32;;;;;;;1.53;0.50;;;5.70;99.90;;;;;;6249588;22;20185;-95
2021/12/10 07:16:58;;;;;;;1.50;1.20;;;5.70;99.90;;;;;;6250002;22;20183;-96
2021/12/10 07:19:26;;;;;;;1.87;0.50;;;5.80;99.90;;;;;;6250079;22;20153;-95
2021/12/10 07:21:52;;;;;;;0.60;0.60;;;5.90;99.90;;;;;;6250084;22;20230;-94
2021/12/10 07:24:19;;;;;;;1.67;0.67;;;5.90;99.90;;;;;;6249796;22;20233;-94
2021/12/10 07:26:45;;;;;;;0.57;0.50;;;5.90;99.90;;;;;;6250679;22;20182;-87
2021/12/10 07:29:11;;;;;;;1.60;0.50;;;5.80;99.90;;;;;;6252161;22;20572;-88
2021/12/10 07:31:39;;;;;;;0.60;0.47;;;5.70;99.90;;;;;;6251629;22;20452;-87
2021/12/10 07:34:05;;;;;;;4.13;0.50;;;5.80;99.90;;;;;;6251428;22;20229;-87
2021/12/10 10:15:22;;;;;;;2.60;1.43;;;6.20;99.90;;;;;;6319330;22;20133;-96
2021/12/10 10:17:48;;;;;;;3.90;1.60;;;6.30;99.90;;;;;;6215313;23;20177;-76
2021/12/10 10:20:16;;;;;;;1.50;1.40;;;6.10;99.90;;;;;;6215251;23;20215;-77
2021/12/10 10:22:44;;;;;;;3.03;1.60;;;6.00;99.90;;;;;;6214744;23;20561;-77
2021/12/10 10:25:11;;;;;;;4.80;1.60;;;6.00;99.90;;;;;;6215171;23;20133;-77
2021/12/10 11:14:50;;;;;;;3.13;1.93;;;6.10;99.90;;;;;;6255465;22;20237;-83
2021/12/10 11:20:43;;;;;;;2.23;2.03;;;5.90;99.90;;;;;;6286920;22;20216;-90
2021/12/10 11:23:11;;;;;;;3.50;1.97;;;5.70;99.90;;;;;;6282287;22;20142;-86
2021/12/10 11:25:44;;;;;;;2.40;2.17;;;5.70;99.90;;;;;;6282552;22;20171;-86
2021/12/10 11:28:25;;;;;;;1.93;1.70;;;5.60;99.90;;;;;;6282428;22;20219;-86
2021/12/10 11:31:18;;;;;;;3.57;2.03;;;5.50;99.90;;;;;;6282304;22;20192;-86
2021/12/10 11:33:50;;;;;;;3.43;1.93;;;5.50;99.90;;;;;;6303337;22;20153;-85
2021/12/10 11:36:22;;;;;;;4.27;2.13;;;5.70;99.90;;;;;;6308714;22;20181;-86
2021/12/10 11:38:51;;;;;;;4.73;2.03;;;5.70;99.90;;;;;;6309560;22;20130;-86
2021/12/10 11:41:24;;;;;;;3.00;1.97;;;5.60;99.90;;;;;;6282289;22;20275;-85
2021/12/10 11:44:17;;;;;;;3.70;2.33;;;5.60;99.90;;;;;;6282348;22;20143;-86
2021/12/10 11:46:51;;;;;;;3.17;2.63;;;5.70;99.90;;;;;;6282482;22;20582;-86
2021/12/10 11:49:32;;;;;;;3.87;3.00;;;5.80;99.90;;;;;;6308945;22;20175;-85
2021/12/10 11:52:04;;;;;;;2.70;2.40;;;6.00;99.90;;;;;;6301321;22;20233;-86
2021/12/10 11:54:51;;;;;;;2.87;2.67;;;6.00;99.90;;;;;;6281850;22;20160;-86
2021/12/10 11:57:26;;;;;;;6.13;2.80;;;6.20;99.90;;;;;;6282271;22;20174;-86
2021/12/10 12:00:14;;;;;;;4.47;3.60;;;6.50;99.90;;;;;;6309113;22;20134;-86
2021/12/10 12:02:50;;;;;;;3.83;3.20;;;6.20;99.90;;;;;;6308081;22;20475;-85
2021/12/10 12:05:22;;;;;;;4.83;2.80;;;6.00;99.90;;;;;;6281931;22;20145;-86
2021/12/10 12:07:53;;;;;;;6.67;3.70;;;6.20;99.90;;;;;;6282512;22;20577;-85
2021/12/10 12:10:36;;;;;;;3.93;3.00;;;6.30;99.90;;;;;;6262787;22;20190;-86
2021/12/10 12:15:46;;;;;;;5.30;4.60;;;6.00;99.90;;;;;;6288491;22;20218;-85
2021/12/10 12:18:25;;;;;;;5.57;4.20;;;5.90;99.90;;;;;;6277738;22;20579;-85
2021/12/10 12:27:12;;;;;;;5.07;4.10;;;5.80;99.90;;;;;;6278178;22;20146;-85
2021/12/10 12:29:55;;;;;;;4.90;3.70;;;5.70;99.90;;;;;;6277880;22;20197;-84
2021/12/10 12:32:26;;;;;;;5.00;4.30;;;5.70;99.90;;;;;;6250460;22;20150;-84
2021/12/10 12:34:52;;;;;;;6.13;5.50;;;5.60;99.90;;;;;;6251130;22;20154;-85
2021/12/10 12:37:21;;;;;;;7.03;5.80;;;5.50;99.90;;;;;;6250750;22;20189;-85
2021/12/10 12:39:52;;;;;;;6.40;5.23;;;5.30;99.90;;;;;;6250986;22;20143;-85
2021/12/10 12:42:35;;;;;;;5.90;4.60;;;5.30;99.90;;;;;;6251191;22;20147;-85
2021/12/10 12:45:11;;;;;;;8.03;5.20;;;5.30;99.90;;;;;;6250770;22;20617;-84
2021/12/10 12:47:40;;;;;;;10.67;6.77;;;5.40;99.90;;;;;;6249825;22;20146;-82
2021/12/10 12:50:13;;;;;;;6.63;5.37;;;5.30;99.90;;;;;;6276870;22;20151;-81
2021/12/10 16:04:43;;;;;;;17.47;11.80;;;4.80;99.90;;;;;;6307074;22;20500;-87
2021/12/10 16:07:13;;;;;;;17.03;11.33;;;4.90;99.90;;;;;;6281984;22;20233;-85
2021/12/10 16:09:40;;;;;;;17.27;11.80;;;4.90;99.90;;;;;;6292545;22;20198;-86
2021/12/10 16:12:07;;;;;;;16.80;11.97;;;4.90;99.90;;;;;;6251746;22;20146;-85
2021/12/10 16:14:35;;;;;;;18.77;11.90;;;5.00;99.90;;;;;;6251102;22;20149;-86
2021/12/10 16:17:05;;;;;;;15.50;11.57;;;5.00;99.90;;;;;;6251824;22;20171;-88
2021/12/10 16:19:31;;;;;;;15.83;11.37;;;4.80;99.90;;;;;;6250932;22;20142;-85
2021/12/10 16:22:18;;;;;;;17.50;12.00;;;4.80;99.90;;;;;;6251826;22;20138;-88
2021/12/10 16:24:48;;;;;;;17.03;11.67;;;4.80;99.90;;;;;;6250945;22;20150;-87
2021/12/10 16:27:22;;;;;;;15.73;12.03;;;4.70;99.90;;;;;;6278249;22;20142;-88
2021/12/10 16:29:56;;;;;;;17.70;11.77;;;4.60;99.90;;;;;;6250690;22;20530;-88
2021/12/10 16:32:29;;;;;;;20.57;12.90;;;4.60;99.90;;;;;;6250907;22;20147;-87
2021/12/10 16:35:19;;;;;;;27.60;17.83;;;4.50;99.90;;;;;;6251440;22;20170;-87
2021/12/10 16:37:45;;;;;;;18.03;12.50;;;4.40;99.90;;;;;;6251326;22;20166;-87
2021/12/10 16:40:19;;;;;;;17.00;11.47;;;4.30;99.90;;;;;;6251490;22;20146;-87
2021/12/10 16:42:52;;;;;;;15.17;10.80;;;4.30;99.90;;;;;;6251453;22;20139;-86
2021/12/10 16:45:21;;;;;;;16.67;11.80;;;4.20;99.90;;;;;;6250905;22;20141;-86
2021/12/10 16:47:48;;;;;;;16.53;11.07;;;4.00;99.90;;;;;;6251297;22;20147;-86
2021/12/10 16:50:15;;;;;;;17.07;11.50;;;4.00;99.90;;;;;;6250511;22;20490;-86
2021/12/10 16:52:41;;;;;;;18.57;12.03;;;3.90;99.90;;;;;;6250984;22;20149;-87
2021/12/10 16:55:11;;;;;;;17.50;11.43;;;3.80;99.90;;;;;;6250925;22;20221;-87
2021/12/10 16:57:38;;;;;;;17.23;11.53;;;3.80;99.90;;;;;;6250912;22;20170;-85
2021/12/10 17:00:12;;;;;;;15.90;11.00;;;3.80;99.90;;;;;;6250708;22;20142;-85
2021/12/10 17:02:42;;;;;;;16.70;11.57;;;3.90;99.90;;;;;;6250729;22;20197;-86
2021/12/10 17:05:13;;;;;;;16.30;10.63;;;3.90;99.90;;;;;;6244329;22;20155;-84
2021/12/10 17:07:43;;;;;;;28.60;17.80;;;4.00;99.90;;;;;;6249498;22;20154;-85
2021/12/10 17:10:19;;;;;;;18.30;12.90;;;4.10;99.90;;;;;;6250244;22;20173;-85
2021/12/10 17:12:45;;;;;;;15.67;11.53;;;4.20;99.90;;;;;;6249073;22;20161;-85
2021/12/10 17:15:19;;;;;;;15.27;11.77;;;4.20;99.90;;;;;;6250311;22;20484;-85
2021/12/10 17:17:49;;;;;;;14.40;10.03;;;4.30;99.90;;;;;;6250430;22;20685;-85
2021/12/10 17:20:26;;;;;;;14.20;10.43;;;4.20;99.90;;;;;;6250485;22;20151;-85
2021/12/10 17:22:54;;;;;;;17.50;9.97;;;4.30;99.90;;;;;;6249714;22;20149;-84
2021/12/10 17:25:33;;;;;;;14.67;10.40;;;4.20;99.90;;;;;;6249708;22;20146;-84
2021/12/10 17:28:04;;;;;;;16.57;10.87;;;4.10;99.90;;;;;;6249648;22;20154;-84
2021/12/10 17:30:36;;;;;;;17.43;10.93;;;4.10;99.90;;;;;;6249553;22;20248;-84
2021/12/10 17:33:07;;;;;;;17.73;11.43;;;4.10;99.90;;;;;;6249484;22;20260;-84
2021/12/10 17:35:38;;;;;;;17.83;11.27;;;4.10;99.90;;;;;;6249227;22;20229;-84
2021/12/10 17:38:09;;;;;;;18.90;11.40;;;4.20;99.90;;;;;;6276018;22;20154;-84
2021/12/10 17:40:39;;;;;;;19.57;12.47;;;4.40;99.90;;;;;;6276501;22;20242;-85
2021/12/10 17:43:11;;;;;;;23.13;16.50;;;4.40;99.90;;;;;;6249511;22;20566;-84
2021/12/10 17:45:57;;;;;;;24.93;17.07;;;4.40;99.90;;;;;;6276796;22;20146;-84
2021/12/10 17:48:29;;;;;;;19.00;11.83;;;4.30;99.90;;;;;;6249121;22;20150;-84
2021/12/10 17:50:57;;;;;;;32.17;22.47;;;4.20;99.90;;;;;;6249298;22;20486;-84
2021/12/10 17:53:23;;;;;;;17.50;11.70;;;4.20;99.90;;;;;;6276206;22;20143;-83
2021/12/10 17:55:54;;;;;;;23.13;14.87;;;4.20;99.90;;;;;;6249020;22;20676;-84
2021/12/10 17:58:23;;;;;;;16.03;10.67;;;4.30;99.90;;;;;;6249077;22;20178;-83
2021/12/10 18:00:57;;;;;;;18.07;11.60;;;4.50;99.90;;;;;;6250393;22;20146;-85
2021/12/10 18:03:30;;;;;;;15.73;10.93;;;4.30;99.90;;;;;;6247209;22;20167;-84
2021/12/10 18:05:57;;;;;;;16.53;11.93;;;4.30;99.90;;;;;;6273965;22;20150;-84
2021/12/10 18:08:27;;;;;;;13.90;9.93;;;4.30;99.90;;;;;;6249411;22;20227;-84
2021/12/10 18:10:57;;;;;;;14.77;9.47;;;4.40;99.90;;;;;;6249072;22;20556;-83
2021/12/10 18:13:25;;;;;;;12.30;8.40;;;4.50;99.90;;;;;;6249694;22;20159;-84
2021/12/10 18:15:58;;;;;;;12.57;8.37;;;4.70;99.90;;;;;;6249663;22;20201;-84
2021/12/10 18:18:34;;;;;;;12.87;8.70;;;4.70;99.90;;;;;;6248917;22;20548;-83
2021/12/10 18:21:29;;;;;;;14.43;9.80;;;4.70;99.90;;;;;;6249186;22;20166;-83
2021/12/10 18:24:22;;;;;;;13.47;8.90;;;4.60;99.90;;;;;;6249250;22;20150;-84
2021/12/10 18:26:55;;;;;;;13.60;8.73;;;4.50;99.90;;;;;;6249365;22;20154;-84
2021/12/10 18:29:31;;;;;;;15.70;10.53;;;4.80;99.90;;;;;;6249327;22;20146;-83
2021/12/10 18:32:06;;;;;;;13.57;8.70;;;4.80;99.90;;;;;;6276707;22;20279;-86
2021/12/10 18:34:34;;;;;;;11.63;8.33;;;4.80;99.90;;;;;;6247833;22;20154;-84
2021/12/10 18:37:03;;;;;;;12.00;7.97;;;4.90;99.90;;;;;;6249490;22;20251;-84
2021/12/10 18:39:37;;;;;;;15.23;9.40;;;4.80;99.90;;;;;;6249845;22;20186;-84
2021/12/10 18:42:10;;;;;;;14.67;9.30;;;4.90;99.90;;;;;;6249786;22;20149;-86
2021/12/10 18:44:41;;;;;;;13.77;9.37;;;4.80;99.90;;;;;;6249342;22;20143;-84
2021/12/10 18:47:07;;;;;;;14.87;9.50;;;4.90;99.90;;;;;;6249118;22;20139;-85
2021/12/10 18:49:37;;;;;;;13.80;9.67;;;4.80;99.90;;;;;;6249383;22;20150;-85
2021/12/10 18:52:06;;;;;;;17.20;10.67;;;4.90;99.90;;;;;;6250041;22;20231;-85
2021/12/10 18:54:37;;;;;;;15.43;10.13;;;4.70;99.90;;;;;;6249501;22;20135;-85
2021/12/10 18:57:11;;;;;;;13.70;9.30;;;4.70;99.90;;;;;;6249960;22;20178;-86
2021/12/10 18:59:41;;;;;;;12.20;8.63;;;4.70;99.90;;;;;;6249755;22;20147;-85
2021/12/10 19:02:18;;;;;;;16.13;9.77;;;4.80;99.90;;;;;;6248533;22;20151;-83
2021/12/10 19:04:47;;;;;;;15.27;9.90;;;4.90;99.90;;;;;;6249012;22;20481;-85
2021/12/10 19:07:27;;;;;;;12.90;9.40;;;4.80;99.90;;;;;;6276518;22;20218;-85
2021/12/10 19:09:57;;;;;;;14.63;9.80;;;4.60;99.90;;;;;;6243229;22;20305;-86
2021/12/10 19:12:44;;;;;;;13.73;9.60;;;4.60;99.90;;;;;;6272456;22;20614;-85
2021/12/10 19:15:33;;;;;;;14.70;9.80;;;4.80;99.90;;;;;;6249074;22;20233;-85
2021/12/10 19:18:11;;;;;;;14.03;9.53;;;4.90;99.90;;;;;;6249088;22;20166;-85
2021/12/10 19:20:42;;;;;;;16.27;10.17;;;4.80;99.90;;;;;;6249654;22;20166;-85
2021/12/10 19:23:17;;;;;;;16.27;10.70;;;4.80;99.90;;;;;;6251153;22;20224;-86
2021/12/10 19:26:01;;;;;;;15.90;11.37;;;4.70;99.90;;;;;;6251182;22;20146;-85
2021/12/10 19:28:52;;;;;;;16.13;11.20;;;4.60;99.90;;;;;;6251045;22;20564;-87
2021/12/10 19:31:30;;;;;;;20.67;12.30;;;4.50;99.90;;;;;;6251084;22;20151;-85
2021/12/10 19:34:12;;;;;;;17.80;11.77;;;4.50;99.90;;;;;;6277580;22;20626;-87
2021/12/10 19:36:40;;;;;;;19.73;12.67;;;4.40;99.90;;;;;;6250948;22;20228;-87
2021/12/10 19:39:14;;;;;;;19.23;12.53;;;4.40;99.90;;;;;;6251351;22;20147;-87
2021/12/10 19:41:44;;;;;;;18.93;12.20;;;4.40;99.90;;;;;;6250782;22;20145;-87
2021/12/10 19:44:14;;;;;;;20.77;12.50;;;4.40;99.90;;;;;;6252676;22;20142;-87
2021/12/10 19:46:45;;;;;;;17.30;12.57;;;4.50;99.90;;;;;;6252440;22;20204;-87
2021/12/10 19:49:15;;;;;;;21.47;12.97;;;4.50;99.90;;;;;;6252123;22;20142;-87
2021/12/10 19:51:47;;;;;;;19.47;12.87;;;4.50;99.90;;;;;;6252098;22;20166;-88
2021/12/10 19:54:25;;;;;;;18.10;12.20;;;4.50;99.90;;;;;;6251377;22;20587;-88
2021/12/10 19:57:08;;;;;;;20.53;12.40;;;4.60;99.90;;;;;;6251935;22;20235;-87
2021/12/10 20:00:09;;;;;;;17.47;12.30;;;4.70;99.90;;;;;;6252341;22;20157;-87
2021/12/10 20:02:45;;;;;;;18.67;12.60;;;4.70;99.90;;;;;;6251825;22;21481;-87
2021/12/10 20:05:14;;;;;;;20.37;12.57;;;4.70;99.90;;;;;;6252929;22;20150;-88
2021/12/10 20:07:44;;;;;;;20.17;12.93;;;4.80;99.90;;;;;;6252320;22;20147;-87